Time;durP1;ratioP1;P1;durP2;ratioP2;P2;SDS_P1;SDS_P2;PMS_P1;PMS_P2;Temp;Humidity;BMP_temperature;BMP_pressure;BME280_temperature;BME280_humidity;BME280_pressure;Samples;Min_cycle;Max_cycle;Signal;HPM_P1;HPM_P2
2022/09/17 03:02:34;;;;;;;18.38;3.83;;;;;;;11.34;70.17;99739.50;5287375;23;20500;-63
2022/09/17 03:05:03;;;;;;;19.13;3.80;;;;;;;11.42;70.03;99744.78;4969592;28;20061;-63
2022/09/17 03:07:31;;;;;;;22.92;4.25;;;;;;;11.30;70.22;99743.59;4975515;28;20050;-63
2022/09/17 03:09:58;;;;;;;21.98;2.85;;;;;;;11.18;70.68;99737.88;4974949;28;20077;-64
2022/09/17 03:12:25;;;;;;;21.52;3.10;;;;;;;11.28;70.45;99741.09;4974829;28;20133;-65
2022/09/17 03:14:52;;;;;;;14.18;2.97;;;;;;;11.17;70.83;99741.56;4975216;28;20051;-62
2022/09/17 03:17:18;;;;;;;24.65;3.97;;;;;;;11.26;70.33;99737.75;4974944;28;20045;-64
2022/09/17 03:19:45;;;;;;;16.52;2.95;;;;;;;11.12;71.02;99733.25;4968601;28;20047;-64
2022/09/17 03:22:11;;;;;;;18.40;3.17;;;;;;;11.20;70.78;99738.50;4938852;28;20375;-63
2022/09/17 03:24:37;;;;;;;18.75;3.17;;;;;;;11.23;70.81;99744.34;4955287;28;20051;-63
2022/09/17 03:27:04;;;;;;;18.58;3.15;;;;;;;11.13;71.07;99742.97;4955890;28;20054;-63
2022/09/17 03:29:30;;;;;;;14.10;2.78;;;;;;;11.23;70.42;99738.13;4955973;28;20073;-63
2022/09/17 03:31:58;;;;;;;18.02;2.50;;;;;;;11.23;70.26;99741.66;4938787;28;20055;-64
2022/09/17 03:34:24;;;;;;;22.58;3.33;;;;;;;11.24;70.54;99745.19;4956244;28;20424;-65
2022/09/17 03:36:51;;;;;;;12.45;2.63;;;;;;;11.29;69.95;99739.25;4962393;28;20457;-65
2022/09/17 03:39:17;;;;;;;21.88;2.85;;;;;;;11.19;70.21;99745.75;4975910;28;20042;-63
2022/09/17 03:41:44;;;;;;;16.05;2.90;;;;;;;11.18;70.06;99740.56;4974845;28;20074;-64
2022/09/17 03:44:10;;;;;;;13.93;2.47;;;;;;;11.10;70.54;99749.56;4974802;28;20055;-64
2022/09/17 03:46:37;;;;;;;13.43;2.75;;;;;;;11.09;70.50;99750.56;4974106;28;20053;-63
2022/09/17 03:49:03;;;;;;;16.50;2.80;;;;;;;11.22;70.11;99757.97;4974109;28;20066;-66
2022/09/17 03:51:30;;;;;;;10.77;2.15;;;;;;;11.22;70.22;99760.66;4974143;28;20054;-64
2022/09/17 03:53:56;;;;;;;17.13;3.40;;;;;;;11.23;70.29;99751.56;4974829;28;20050;-63
2022/09/17 03:56:23;;;;;;;12.55;1.92;;;;;;;11.30;69.84;99747.09;4972320;28;20051;-63
2022/09/17 03:58:49;;;;;;;16.70;3.10;;;;;;;11.32;69.70;99752.31;4975387;28;20043;-62
2022/09/17 04:01:16;;;;;;;13.05;2.58;;;;;;;11.17;70.27;99752.31;4974471;28;20045;-64
2022/09/17 04:03:44;;;;;;;12.63;2.67;;;;;;;11.14;70.13;99753.53;4974006;28;20134;-65
2022/09/17 04:06:10;;;;;;;14.60;2.40;;;;;;;11.26;69.97;99753.88;4974332;28;20050;-65
2022/09/17 04:08:37;;;;;;;13.98;2.47;;;;;;;11.35;69.62;99762.66;4974566;28;20050;-64
2022/09/17 04:11:03;;;;;;;17.95;2.42;;;;;;;11.22;70.13;99763.34;4974485;28;20046;-64
2022/09/17 04:13:30;;;;;;;15.57;2.67;;;;;;;11.31;69.76;99764.91;4973516;28;20047;-63
2022/09/17 04:15:56;;;;;;;21.45;2.78;;;;;;;11.39;69.45;99763.94;4973641;28;20200;-63
2022/09/17 04:18:23;;;;;;;14.32;2.97;;;;;;;11.41;69.40;99762.75;4973797;28;20467;-63
2022/09/17 04:20:50;;;;;;;15.25;2.20;;;;;;;11.45;69.33;99769.41;4974869;28;20065;-64
2022/09/17 04:23:16;;;;;;;13.32;2.00;;;;;;;11.49;69.14;99766.34;4974021;28;20043;-65
2022/09/17 04:25:43;;;;;;;13.63;2.33;;;;;;;11.49;68.88;99760.97;4973870;28;20051;-65
2022/09/17 04:28:10;;;;;;;16.88;2.63;;;;;;;11.29;69.52;99764.25;4974096;28;20494;-70
2022/09/17 04:30:37;;;;;;;12.27;2.30;;;;;;;11.43;69.27;99760.69;4973844;28;20042;-63
2022/09/17 04:33:04;;;;;;;15.23;2.55;;;;;;;11.48;69.11;99757.44;4973992;28;20407;-63
2022/09/17 04:35:30;;;;;;;12.77;2.75;;;;;;;11.47;68.66;99761.13;4973815;28;20053;-63
2022/09/17 04:37:57;;;;;;;16.38;2.75;;;;;;;11.44;68.76;99769.56;4966525;28;20054;-63
2022/09/17 04:40:24;;;;;;;12.02;2.17;;;;;;;11.35;69.23;99768.03;4974202;28;20050;-63
2022/09/17 04:42:55;;;;;;;20.50;3.28;;;;;;;11.27;69.42;99763.59;4973849;28;20450;-63
2022/09/17 04:45:22;;;;;;;19.63;2.60;;;;;;;11.36;69.24;99769.69;4973200;28;20428;-63
2022/09/17 04:47:51;;;;;;;16.00;2.65;;;;;;;11.31;69.10;99766.72;4973611;28;20074;-65
2022/09/17 04:50:18;;;;;;;16.30;2.25;;;;;;;11.37;69.27;99769.50;4973122;28;21591;-63
2022/09/17 04:52:45;;;;;;;14.85;2.60;;;;;;;11.42;69.01;99775.16;4973521;28;20115;-63
2022/09/17 04:55:12;;;;;;;11.43;2.70;;;;;;;11.42;68.87;99768.94;4973762;28;20065;-63
2022/09/17 04:57:45;;;;;;;13.57;2.75;;;;;;;11.46;68.90;99768.38;4972470;28;20513;-64
2022/09/17 05:00:12;;;;;;;13.73;3.03;;;;;;;11.43;68.97;99766.06;4973374;28;20058;-63
2022/09/17 05:02:38;;;;;;;11.68;3.50;;;;;;;11.42;68.93;99767.09;4972744;28;20069;-63
2022/09/17 05:05:05;;;;;;;22.08;5.72;;;;;;;11.42;69.09;99777.00;4972007;28;20473;-63
2022/09/17 05:07:32;;;;;;;15.27;5.13;;;;;;;11.48;68.81;99781.59;4973308;28;20062;-64
2022/09/17 05:09:58;;;;;;;20.02;4.90;;;;;;;11.45;69.07;99779.31;4973175;28;20486;-63
2022/09/17 05:12:24;;;;;;;17.70;2.72;;;;;;;11.38;69.37;99781.91;4946770;28;20047;-63
2022/09/17 05:14:51;;;;;;;21.98;3.92;;;;;;;11.37;69.33;99788.28;4953481;28;20051;-66
2022/09/17 05:17:17;;;;;;;10.27;2.63;;;;;;;11.44;69.16;99781.13;4953742;28;20051;-64
2022/09/17 05:19:44;;;;;;;23.85;3.47;;;;;;;11.12;70.18;99786.94;4953112;28;20058;-64
2022/09/17 05:22:10;;;;;;;18.45;2.88;;;;;;;11.40;69.50;99789.78;4962158;28;20055;-73
2022/09/17 05:24:38;;;;;;;17.23;2.95;;;;;;;11.60;68.70;99793.53;4961927;28;20047;-74
2022/09/17 05:27:06;;;;;;;14.63;2.70;;;;;;;11.46;69.22;99789.03;4963295;28;20055;-74
2022/09/17 05:29:32;;;;;;;15.15;3.30;;;;;;;11.47;69.52;99793.38;4963084;28;20450;-74
2022/09/17 05:31:58;;;;;;;14.93;3.13;;;;;;;11.52;69.12;99787.41;4965103;28;20051;-74
2022/09/17 05:34:25;;;;;;;10.98;2.70;;;;;;;11.57;68.96;99793.06;4964229;28;20047;-74
2022/09/17 05:36:51;;;;;;;13.50;2.97;;;;;;;11.60;69.01;99792.69;4963933;28;20047;-75
2022/09/17 05:39:20;;;;;;;17.40;3.03;;;;;;;11.51;69.26;99794.66;4963186;28;20052;-74
2022/09/17 05:41:46;;;;;;;15.65;3.17;;;;;;;11.79;68.54;99786.72;4963307;28;20043;-74
2022/09/17 05:44:13;;;;;;;15.98;3.22;;;;;;;11.56;69.13;99800.31;4962991;28;20070;-74
2022/09/17 05:46:44;;;;;;;14.77;3.15;;;;;;;11.55;69.46;99809.41;4962645;28;20051;-74
2022/09/17 05:49:11;;;;;;;14.65;3.55;;;;;;;11.58;69.57;99805.47;4960020;28;20058;-75
2022/09/17 05:51:38;;;;;;;18.42;3.55;;;;;;;11.75;68.79;99800.75;4962215;28;20407;-74
2022/09/17 05:54:05;;;;;;;14.77;3.45;;;;;;;11.65;69.15;99807.22;4957985;28;20062;-74
2022/09/17 05:56:31;;;;;;;15.98;3.25;;;;;;;11.77;68.94;99802.22;4961024;28;20047;-74
2022/09/17 05:58:58;;;;;;;17.13;3.97;;;;;;;11.62;69.48;99814.81;4960531;28;20044;-74
2022/09/17 06:01:25;;;;;;;22.13;3.78;;;;;;;11.45;70.34;99809.69;4958942;28;20068;-73
2022/09/17 06:03:52;;;;;;;16.45;3.72;;;;;;;11.71;69.61;99812.91;4957755;28;20043;-74
2022/09/17 06:06:19;;;;;;;20.75;3.65;;;;;;;11.58;69.71;99825.09;4958878;28;20146;-74
2022/09/17 06:08:45;;;;;;;20.23;3.70;;;;;;;11.54;69.98;99815.75;4959120;28;20050;-74
2022/09/17 06:11:12;;;;;;;26.35;4.53;;;;;;;11.76;68.83;99821.19;4966863;28;20204;-74
2022/09/17 06:13:38;;;;;;;22.63;3.42;;;;;;;12.00;68.06;99817.31;4975158;28;20115;-70
2022/09/17 06:16:05;;;;;;;23.83;4.28;;;;;;;12.02;67.84;99813.44;4974858;28;20059;-70
2022/09/17 06:18:31;;;;;;;23.70;4.45;;;;;;;12.10;67.93;99823.22;4975631;28;20055;-70
2022/09/17 06:21:02;;;;;;;28.13;4.43;;;;;;;12.11;67.81;99827.59;4975214;28;20046;-70
2022/09/17 06:23:36;;;;;;;25.63;5.00;;;;;;;11.84;68.43;99830.00;4975750;28;20050;-70
2022/09/17 06:26:04;;;;;;;22.48;4.07;;;;;;;12.08;67.63;99833.34;4973879;28;20050;-71
2022/09/17 06:28:31;;;;;;;29.02;4.80;;;;;;;11.72;68.35;99834.19;4973706;28;20047;-70
2022/09/17 06:31:02;;;;;;;26.35;4.38;;;;;;;11.40;69.84;99836.25;4974666;28;20415;-70
2022/09/17 06:33:30;;;;;;;21.58;4.78;;;;;;;11.73;68.52;99838.56;4973917;28;20051;-71
2022/09/17 06:36:03;;;;;;;24.95;4.60;;;;;;;11.95;68.10;99834.03;4974411;28;20057;-71
2022/09/17 06:38:32;;;;;;;27.88;4.45;;;;;;;12.13;67.63;99847.03;4977727;28;20039;-70
2022/09/17 06:40:58;;;;;;;31.33;5.72;;;;;;;12.02;67.67;99834.09;4977924;28;20047;-70
2022/09/17 06:43:25;;;;;;;32.05;4.80;;;;;;;11.90;67.96;99842.69;4969737;28;20050;-72
2022/09/17 06:45:59;;;;;;;28.70;4.50;;;;;;;11.81;67.59;99842.97;4977766;28;20058;-70
2022/09/17 06:48:27;;;;;;;25.88;4.68;;;;;;;11.85;67.28;99846.94;4977796;28;20062;-70
2022/09/17 06:50:54;;;;;;;31.98;4.57;;;;;;;11.63;67.45;99836.13;4978245;28;20414;-70
2022/09/17 06:53:22;;;;;;;29.17;5.43;;;;;;;11.67;67.43;99842.00;4967701;28;20047;-69
2022/09/17 06:55:49;;;;;;;31.38;4.43;;;;;;;11.77;66.99;99850.59;4976853;28;20049;-71
2022/09/17 06:58:16;;;;;;;18.85;4.05;;;;;;;11.84;66.63;99846.13;4978029;28;20422;-71
2022/09/17 07:00:43;;;;;;;27.75;4.82;;;;;;;11.74;66.64;99847.44;4976720;28;20065;-70
2022/09/17 07:03:09;;;;;;;39.75;5.72;;;;;;;11.81;66.76;99848.34;4978098;28;20059;-71
2022/09/17 07:05:36;;;;;;;28.73;4.13;;;;;;;11.59;66.49;99845.59;4968361;28;20050;-69
2022/09/17 07:08:03;;;;;;;20.77;3.67;;;;;;;11.74;66.08;99847.44;4977849;28;20047;-71
2022/09/17 07:10:30;;;;;;;22.13;4.03;;;;;;;11.79;65.73;99851.22;4975072;28;20043;-70
2022/09/17 07:12:58;;;;;;;23.55;4.55;;;;;;;12.07;65.06;99843.28;4949342;28;20055;-71
2022/09/17 07:15:24;;;;;;;30.23;4.45;;;;;;;12.30;64.45;99848.44;4957999;28;20058;-70
2022/09/17 07:17:51;;;;;;;30.02;4.50;;;;;;;12.15;63.73;99839.63;4959323;28;20054;-71
2022/09/17 07:20:18;;;;;;;30.45;4.82;;;;;;;12.07;63.91;99845.97;4957935;28;20051;-71
2022/09/17 07:22:44;;;;;;;23.27;4.18;;;;;;;12.04;63.93;99848.19;4949690;28;20047;-71
2022/09/17 07:25:12;;;;;;;23.33;4.30;;;;;;;12.00;63.86;99857.66;4946844;28;20433;-70
2022/09/17 07:27:38;;;;;;;18.77;3.70;;;;;;;12.10;63.81;99852.78;4956977;28;20059;-70
2022/09/17 07:30:05;;;;;;;22.48;3.78;;;;;;;12.22;63.26;99851.25;4957375;28;20061;-71
2022/09/17 07:32:32;;;;;;;22.20;4.13;;;;;;;12.09;63.06;99851.13;4957481;28;20054;-70
2022/09/17 07:34:58;;;;;;;25.35;4.55;;;;;;;12.17;63.22;99857.22;4939807;28;20094;-70
2022/09/17 07:37:25;;;;;;;21.85;4.03;;;;;;;12.46;62.27;99854.59;4957140;28;20051;-70
2022/09/17 07:39:51;;;;;;;23.48;4.00;;;;;;;12.00;63.27;99852.25;4957333;28;20054;-70
2022/09/17 07:42:18;;;;;;;19.63;4.13;;;;;;;12.20;62.48;99849.78;4957160;28;20062;-69
2022/09/17 07:44:45;;;;;;;22.55;3.95;;;;;;;12.49;61.60;99846.97;4956788;28;20422;-71
2022/09/17 07:47:12;;;;;;;30.17;4.20;;;;;;;12.33;61.85;99850.75;4955848;28;20047;-70
2022/09/17 07:49:38;;;;;;;22.20;4.57;;;;;;;12.25;61.95;99853.56;4956736;28;20054;-69
2022/09/17 07:52:05;;;;;;;30.02;3.97;;;;;;;12.46;61.38;99850.03;4957549;28;20059;-71
2022/09/17 07:54:37;;;;;;;26.45;3.92;;;;;;;12.93;60.55;99845.03;4956376;28;20495;-71
2022/09/17 07:57:04;;;;;;;25.02;3.95;;;;;;;12.85;60.51;99846.84;4956932;28;20047;-71
2022/09/17 07:59:31;;;;;;;25.10;5.82;;;;;;;12.55;61.17;99848.03;4956119;28;20050;-71
2022/09/17 08:01:57;;;;;;;19.02;4.15;;;;;;;12.51;60.94;99850.28;4957315;28;20047;-71
2022/09/17 08:04:24;;;;;;;33.80;5.20;;;;;;;12.59;60.42;99854.69;4919410;29;20063;-70
2022/09/17 08:06:51;;;;;;;22.27;4.22;;;;;;;12.91;59.74;99856.00;4918934;29;20059;-71
2022/09/17 08:09:17;;;;;;;22.70;3.95;;;;;;;12.98;59.35;99853.38;4919258;29;20106;-72
2022/09/17 08:11:44;;;;;;;21.65;3.63;;;;;;;12.93;58.91;99847.72;4930353;29;20059;-72
2022/09/17 08:14:21;;;;;;;25.90;4.00;;;;;;;12.83;59.49;99854.31;4937371;29;20072;-70
2022/09/17 08:16:54;;;;;;;18.83;3.40;;;;;;;12.81;59.16;99847.44;4937608;29;20492;-71
2022/09/17 08:19:21;;;;;;;20.98;2.88;;;;;;;12.59;59.46;99847.47;4937167;29;20055;-70
2022/09/17 08:21:47;;;;;;;16.83;2.53;;;;;;;13.13;58.64;99846.00;4936397;29;20051;-70
2022/09/17 08:24:14;;;;;;;28.33;3.85;;;;;;;13.90;56.46;99849.44;4936769;29;20055;-69
2022/09/17 08:26:40;;;;;;;19.38;3.22;;;;;;;13.92;56.09;99847.41;4937222;29;20055;-71
2022/09/17 08:29:07;;;;;;;22.20;3.45;;;;;;;13.82;56.50;99843.22;4937168;29;20064;-70
2022/09/17 08:31:33;;;;;;;17.65;3.25;;;;;;;13.73;55.33;99854.34;4937041;29;20070;-70
2022/09/17 08:34:00;;;;;;;19.70;3.65;;;;;;;14.06;54.05;99846.38;4936664;29;20492;-70
2022/09/17 08:36:27;;;;;;;22.70;3.47;;;;;;;14.22;53.17;99845.16;4936260;29;20130;-70
2022/09/17 08:38:54;;;;;;;20.17;3.35;;;;;;;14.00;54.23;99844.50;4936338;29;20047;-70
2022/09/17 08:41:42;;;;;;;14.60;2.80;;;;;;;14.08;53.88;99851.56;4937129;29;20526;-70
2022/09/17 08:44:21;;;;;;;15.07;3.72;;;;;;;14.29;53.41;99838.75;4937476;29;20056;-70
2022/09/17 08:46:56;;;;;;;19.08;3.85;;;;;;;15.70;49.03;99845.59;4937476;29;20483;-70
2022/09/17 08:49:35;;;;;;;18.45;3.45;;;;;;;16.71;46.02;99852.84;4940655;29;20055;-70
2022/09/17 08:52:08;;;;;;;18.60;3.33;;;;;;;16.03;47.14;99848.13;4935474;29;20044;-70
2022/09/17 08:54:54;;;;;;;19.65;3.53;;;;;;;15.87;47.83;99856.75;4935197;29;20087;-70
2022/09/17 08:57:35;;;;;;;20.85;3.35;;;;;;;15.22;49.63;99849.50;4936186;29;20062;-70
2022/09/17 09:00:17;;;;;;;21.55;3.38;;;;;;;14.76;51.40;99854.97;4935915;29;20066;-70
2022/09/17 09:02:59;;;;;;;11.45;3.03;;;;;;;15.58;49.34;99861.66;4948519;28;20042;-69
2022/09/17 09:05:29;;;;;;;;;;;;;;;15.69;48.71;99863.69;4966513;28;20094;-70
2022/09/17 09:08:03;;;;;;;16.88;3.25;;;;;;;15.14;49.69;99860.53;4975787;28;19929;-70
2022/09/17 09:10:45;;;;;;;21.50;3.67;;;;;;;14.33;51.17;99870.72;4972381;28;20115;-69
2022/09/17 09:13:16;;;;;;;26.50;4.00;;;;;;;15.19;48.26;99871.53;4954827;28;20059;-70
2022/09/17 09:15:52;;;;;;;23.02;3.88;;;;;;;16.39;45.47;99869.13;4956172;28;20392;-70
2022/09/17 09:18:21;;;;;;;17.38;2.90;;;;;;;16.42;44.06;99887.63;4955960;28;20183;-70
2022/09/17 09:21:24;;;;;;;22.00;3.15;;;;;;;17.56;41.77;99882.88;4956273;28;20047;-70
2022/09/17 09:24:06;;;;;;;13.73;2.72;;;;;;;17.53;41.79;99886.03;4936798;28;20507;-69
2022/09/17 09:26:38;;;;;;;16.80;3.40;;;;;;;17.34;42.04;99868.97;4956425;28;20059;-71
2022/09/17 09:29:20;;;;;;;16.70;3.30;;;;;;;17.05;42.89;99881.31;4957734;28;20051;-71
2022/09/17 09:31:54;;;;;;;15.77;3.55;;;;;;;16.67;43.54;99884.16;4959395;28;20054;-70
2022/09/17 09:34:22;;;;;;;17.08;3.20;;;;;;;15.55;46.07;99890.97;4959903;28;20047;-70
2022/09/17 09:36:50;;;;;;;16.23;2.75;;;;;;;15.77;45.76;99888.84;4951681;28;20053;-71
2022/09/17 09:39:24;;;;;;;19.33;3.05;;;;;;;15.47;46.48;99887.47;4960439;28;20054;-71
2022/09/17 09:42:26;;;;;;;22.05;3.00;;;;;;;14.85;47.73;99879.91;4961578;28;20514;-72
2022/09/17 09:44:52;;;;;;;22.98;3.92;;;;;;;14.38;48.18;99887.13;4940404;28;20044;-71
2022/09/17 09:47:25;;;;;;;11.68;2.72;;;;;;;14.33;48.63;99887.75;4961177;28;20051;-71
2022/09/17 09:50:04;;;;;;;13.35;3.00;;;;;;;14.57;49.10;99893.59;4963536;28;20054;-71
2022/09/17 09:52:58;;;;;;;14.98;2.90;;;;;;;14.52;49.89;99888.78;4964789;28;20058;-71
2022/09/17 09:56:03;;;;;;;24.98;3.58;;;;;;;13.90;51.91;99895.28;4962891;28;20078;-71
2022/09/17 09:58:38;;;;;;;13.82;3.10;;;;;;;13.48;52.57;99902.53;4847752;29;20050;-71
2022/09/17 10:01:13;;;;;;;17.92;2.97;;;;;;;13.90;51.66;99903.38;4849985;29;20060;-70
2022/09/17 10:03:41;;;;;;;13.35;2.67;;;;;;;15.27;48.75;99904.78;4849241;29;20057;-70
2022/09/17 10:06:09;;;;;;;14.60;2.83;;;;;;;17.00;44.67;99900.13;4847815;29;20054;-70
2022/09/17 10:08:38;;;;;;;14.60;3.28;;;;;;;17.46;43.60;99898.84;4848475;29;20647;-71
2022/09/17 10:11:10;;;;;;;13.80;2.38;;;;;;;16.92;44.59;99903.13;4856872;29;20080;-71
2022/09/17 10:13:39;;;;;;;11.90;2.53;;;;;;;17.74;42.40;99898.31;4869582;29;20046;-71
2022/09/17 10:16:41;;;;;;;10.00;2.22;;;;;;;18.73;39.90;99903.41;4870343;29;20534;-71
2022/09/17 10:19:07;;;;;;;11.05;2.67;;;;;;;18.55;38.49;99907.06;4815717;29;20051;-71
2022/09/17 10:21:36;;;;;;;13.88;2.83;;;;;;;18.61;38.57;99908.00;4816364;29;21514;-70
2022/09/17 10:24:13;;;;;;;16.33;2.90;;;;;;;18.82;39.17;99902.00;4816089;29;20061;-70
2022/09/17 10:26:39;;;;;;;13.85;2.58;;;;;;;19.94;36.82;99907.28;4817931;29;20053;-70
2022/09/17 10:29:13;;;;;;;12.13;2.72;;;;;;;19.04;37.68;99894.16;4817702;29;20153;-70
2022/09/17 10:31:54;;;;;;;12.23;2.35;;;;;;;18.41;38.13;99906.44;4832817;29;20110;-70
2022/09/17 10:34:27;;;;;;;8.52;2.60;;;;;;;17.52;40.62;99916.09;4910990;29;20049;-70
2022/09/17 10:36:55;;;;;;;14.00;2.55;;;;;;;16.30;42.20;99913.75;4909870;29;20049;-69
2022/09/17 10:39:31;;;;;;;16.00;3.20;;;;;;;15.69;43.14;99925.06;4908720;29;20511;-69
2022/09/17 10:42:14;;;;;;;23.27;8.10;;;;;;;15.34;44.05;99916.41;4908951;29;20134;-70
2022/09/17 10:45:01;;;;;;;19.30;4.30;;;;;;;15.45;43.69;99913.88;4909077;29;20055;-70
2022/09/17 10:47:36;;;;;;;13.20;2.85;;;;;;;15.04;44.72;99914.16;4908847;29;20059;-70
2022/09/17 10:50:20;;;;;;;18.27;2.92;;;;;;;15.18;44.63;99912.25;4908818;29;20049;-70
2022/09/17 10:52:50;;;;;;;16.75;2.55;;;;;;;15.34;45.00;99927.22;4937357;28;20053;-67
2022/09/17 10:55:38;;;;;;;17.67;2.90;;;;;;;15.52;45.70;99921.97;4987772;28;20057;-67
2022/09/17 10:58:07;;;;;;;17.70;3.13;;;;;;;15.11;47.88;99920.38;4987446;28;20051;-70
2022/09/17 11:00:58;;;;;;;13.27;2.90;;;;;;;15.52;47.36;99919.25;4988748;28;20051;-69
2022/09/17 11:03:52;;;;;;;16.17;3.20;;;;;;;15.21;46.85;99907.28;4984657;28;20096;-69
2022/09/17 11:07:04;;;;;;;18.35;2.67;;;;;;;14.73;47.36;99928.28;4987125;28;20035;-70
2022/09/17 11:09:51;;;;;;;12.32;1.88;;;;;;;14.80;47.12;99939.91;4988375;28;20046;-71
2022/09/17 11:12:33;;;;;;;12.10;2.30;;;;;;;14.40;48.36;99928.22;4970864;28;20119;-69
2022/09/17 11:15:12;;;;;;;11.98;2.30;;;;;;;14.39;48.25;99935.50;4968025;28;20049;-71
2022/09/17 11:18:06;;;;;;;10.48;2.17;;;;;;;14.73;47.79;99923.72;4969782;28;20049;-71
2022/09/17 11:20:55;;;;;;;10.30;2.22;;;;;;;15.93;45.00;99921.63;4951803;29;20050;-70
2022/09/17 11:23:36;;;;;;;8.77;2.22;;;;;;;16.70;41.75;99915.38;4967430;28;20054;-70
2022/09/17 11:26:10;;;;;;;13.57;2.00;;;;;;;16.97;40.30;99921.41;4968401;28;20055;-70
2022/09/17 11:29:27;;;;;;;12.85;1.60;;;;;;;16.71;40.71;99911.63;4969903;29;20049;-69
2022/09/17 11:32:12;;;;;;;12.35;2.03;;;;;;;15.71;42.92;99926.53;4969427;28;20483;-70
2022/09/17 11:34:50;;;;;;;11.25;2.60;;;;;;;15.11;45.39;99923.06;4967429;29;20047;-69
2022/09/17 11:37:25;;;;;;;9.82;2.05;;;;;;;15.32;45.91;99922.00;4968644;28;20047;-70
2022/09/17 11:40:14;;;;;;;15.23;2.92;;;;;;;15.44;46.66;99924.91;4969660;29;20050;-69
2022/09/17 11:42:47;;;;;;;11.40;2.88;;;;;;;16.67;42.81;99922.06;4968840;28;20048;-70
2022/09/17 11:45:19;;;;;;;16.27;2.45;;;;;;;17.60;41.25;99918.50;4970411;28;20530;-70
2022/09/17 11:47:55;;;;;;;12.90;2.00;;;;;;;19.30;37.42;99919.19;4970812;29;20051;-69
2022/09/17 11:50:28;;;;;;;10.18;2.30;;;;;;;19.30;36.60;99920.00;4970324;28;20054;-70
2022/09/17 11:53:13;;;;;;;9.48;2.72;;;;;;;19.89;34.85;99911.78;4969492;28;20047;-69
2022/09/17 11:55:54;;;;;;;7.43;1.58;;;;;;;18.09;36.25;99912.03;4970147;28;20043;-71
2022/09/17 11:58:46;;;;;;;13.10;2.03;;;;;;;17.93;36.75;99904.56;4969043;29;20087;-70
2022/09/17 12:01:24;;;;;;;9.85;1.88;;;;;;;17.72;36.98;99903.16;4971149;28;20050;-71
2022/09/17 12:04:00;;;;;;;10.50;2.08;;;;;;;16.76;39.42;99900.97;4967874;28;20047;-69
2022/09/17 12:06:39;;;;;;;8.68;2.15;;;;;;;16.49;39.67;99914.66;4969461;28;20054;-71
2022/09/17 12:09:15;;;;;;;5.95;2.15;;;;;;;16.50;40.36;99902.81;4970015;28;20059;-71
2022/09/17 12:11:58;;;;;;;7.65;2.10;;;;;;;16.53;40.84;99915.91;4984002;28;20053;-71
2022/09/17 12:14:50;;;;;;;12.27;2.38;;;;;;;16.56;40.50;99909.22;4987503;28;20053;-71
2022/09/17 12:17:38;;;;;;;11.07;2.47;;;;;;;16.11;41.00;99928.22;4989895;28;20053;-70
2022/09/17 12:20:14;;;;;;;9.82;1.85;;;;;;;15.34;43.63;99924.50;4990253;28;20055;-70
2022/09/17 12:22:44;;;;;;;7.10;1.55;;;;;;;15.21;46.05;99928.88;4989382;28;20057;-70
2022/09/17 12:25:12;;;;;;;9.17;1.90;;;;;;;14.92;47.65;99915.84;4989946;28;20043;-71
2022/09/17 12:28:00;;;;;;;5.53;1.38;;;;;;;15.05;46.63;99904.16;4990184;28;20051;-72
2022/09/17 12:30:39;;;;;;;6.65;1.58;;;;;;;16.52;44.73;99908.03;4990133;28;20053;-70
2022/09/17 12:33:27;;;;;;;8.18;1.92;;;;;;;18.08;41.55;99894.09;4991169;28;20054;-69
2022/09/17 12:36:21;;;;;;;8.25;1.60;;;;;;;20.74;36.57;99885.56;4988890;28;20054;-69
2022/09/17 12:38:50;;;;;;;10.68;1.77;;;;;;;22.34;33.78;99877.31;4986160;28;20047;-71
2022/09/17 12:41:35;;;;;;;6.95;1.55;;;;;;;22.13;33.25;99884.47;4985730;28;20046;-71
2022/09/17 12:44:29;;;;;;;12.20;4.38;;;;;;;23.04;31.65;99881.72;4971274;28;20039;-70
2022/09/17 12:47:12;;;;;;;11.18;4.13;;;;;;;23.43;30.84;99878.72;4987123;28;20047;-71
2022/09/17 12:49:49;;;;;;;8.13;2.45;;;;;;;22.49;31.68;99876.63;4986846;28;20046;-71
2022/09/17 12:52:25;;;;;;;6.95;1.73;;;;;;;20.37;34.38;99881.38;4983381;28;20046;-70
2022/09/17 12:55:13;;;;;;;7.70;1.98;;;;;;;18.95;37.17;99877.34;4980107;28;20049;-68
2022/09/17 12:58:00;;;;;;;8.75;1.88;;;;;;;17.88;37.84;99873.72;4986545;28;20062;-71
2022/09/17 13:00:40;;;;;;;9.40;1.85;;;;;;;17.01;40.50;99881.97;4990044;28;20060;-70
2022/09/17 13:03:13;;;;;;;13.15;1.83;;;;;;;16.09;40.60;99877.03;4986716;28;20061;-70
2022/09/17 13:06:02;;;;;;;12.23;1.80;;;;;;;15.78;39.83;99875.13;4989984;28;20059;-70
2022/09/17 13:09:08;;;;;;;7.50;1.60;;;;;;;16.16;38.81;99877.81;4987545;28;20061;-70
2022/09/17 13:11:59;;;;;;;6.07;1.35;;;;;;;15.96;38.50;99874.41;4909041;29;20052;-70
2022/09/17 13:15:06;;;;;;;5.00;1.35;;;;;;;15.69;38.21;99876.41;4909131;29;20055;-71
2022/09/17 13:17:43;;;;;;;10.45;1.42;;;;;;;15.87;37.60;99881.91;4905623;29;20045;-70
2022/09/17 13:20:14;;;;;;;7.80;2.35;;;;;;;15.99;37.69;99882.09;4911749;29;20048;-70
2022/09/17 13:22:53;;;;;;;6.07;1.48;;;;;;;15.54;38.86;99895.56;4909717;29;20052;-71
2022/09/17 13:25:21;;;;;;;7.25;1.38;;;;;;;15.56;37.93;99887.22;4910194;29;20051;-70
2022/09/17 13:27:49;;;;;;;8.52;1.80;;;;;;;15.51;38.59;99873.53;4910377;29;20049;-69
2022/09/17 13:30:17;;;;;;;10.65;1.70;;;;;;;15.59;38.31;99882.22;4911314;29;20054;-68
2022/09/17 13:32:46;;;;;;;8.20;1.75;;;;;;;15.19;38.21;99873.41;4909863;29;20048;-71
2022/09/17 13:35:15;;;;;;;8.43;1.50;;;;;;;15.31;38.50;99873.59;4909345;29;20044;-71
2022/09/17 13:37:44;;;;;;;8.77;1.90;;;;;;;15.53;38.47;99866.03;4912280;29;20049;-70
2022/09/17 13:40:33;;;;;;;8.68;1.70;;;;;;;15.17;38.61;99870.09;4910115;29;20052;-71
2022/09/17 13:43:03;;;;;;;10.85;1.98;;;;;;;15.30;38.32;99874.63;4955378;29;20066;-71
2022/09/17 13:45:32;;;;;;;5.68;1.65;;;;;;;15.39;38.09;99876.88;4970218;28;20063;-70
2022/09/17 13:48:06;;;;;;;11.07;1.40;;;;;;;15.38;38.03;99874.41;4970935;28;20063;-70
2022/09/17 13:50:42;;;;;;;12.48;2.20;;;;;;;15.33;38.33;99871.47;4971722;28;20050;-71
2022/09/17 13:53:11;;;;;;;7.60;1.70;;;;;;;15.20;38.43;99866.97;4969371;28;20051;-70
2022/09/17 13:55:41;;;;;;;15.73;2.45;;;;;;;15.23;38.52;99861.97;4970816;29;20051;-70
2022/09/17 13:58:26;;;;;;;6.32;1.88;;;;;;;15.13;38.46;99863.44;4970106;29;20102;-70
2022/09/17 14:00:58;;;;;;;9.63;1.95;;;;;;;14.72;39.51;99865.34;4970206;29;20058;-71
2022/09/17 14:03:43;;;;;;;12.40;2.33;;;;;;;14.97;39.22;99857.44;4970383;29;20067;-69
2022/09/17 14:06:13;;;;;;;9.80;1.77;;;;;;;14.87;38.86;99856.22;4970697;28;20051;-71
2022/09/17 14:08:43;;;;;;;12.65;2.00;;;;;;;14.82;39.29;99847.91;4969595;28;20043;-70
2022/09/17 14:11:21;;;;;;;11.63;1.92;;;;;;;15.06;39.46;99865.34;4980064;28;20051;-71
2022/09/17 14:13:48;;;;;;;10.63;2.30;;;;;;;15.04;38.19;99854.72;4989158;28;20043;-69
2022/09/17 14:16:39;;;;;;;14.02;2.10;;;;;;;15.10;37.11;99853.88;4989745;28;20050;-70
2022/09/17 14:19:15;;;;;;;11.13;2.05;;;;;;;15.39;36.71;99862.53;4972913;28;20431;-71
2022/09/17 14:21:45;;;;;;;13.82;2.28;;;;;;;15.36;37.12;99865.66;4985993;28;20043;-70
2022/09/17 14:24:32;;;;;;;9.02;2.00;;;;;;;15.54;37.05;99857.72;4988051;28;20053;-71
2022/09/17 14:27:21;;;;;;;11.43;1.70;;;;;;;15.33;37.59;99860.66;4981814;28;20122;-71
2022/09/17 14:30:05;;;;;;;11.65;2.00;;;;;;;15.16;39.19;99865.72;4983297;28;20046;-70
2022/09/17 14:32:50;;;;;;;12.45;2.17;;;;;;;14.84;40.94;99886.31;4985434;28;20118;-69
2022/09/17 14:35:28;;;;;;;12.80;2.05;;;;;;;14.55;45.39;99885.69;4984462;28;20065;-71
2022/09/17 14:37:59;;;;;;;9.93;2.15;;;;;;;14.42;46.56;99891.88;4983249;28;20043;-70
2022/09/17 14:40:27;;;;;;;11.38;2.08;;;;;;;14.06;47.61;99893.06;4984786;28;20066;-71
2022/09/17 14:42:56;;;;;;;8.85;1.38;;;;;;;14.37;47.01;99882.75;4984583;28;20043;-71
2022/09/17 14:45:30;;;;;;;9.10;1.77;;;;;;;14.29;47.88;99892.72;4986323;28;20038;-71
2022/09/17 14:48:29;;;;;;;7.22;1.45;;;;;;;13.85;49.13;99881.59;4985545;28;20043;-68
2022/09/17 14:51:17;;;;;;;6.00;1.73;;;;;;;14.11;47.29;99897.00;4986281;28;20450;-67
2022/09/17 14:53:48;;;;;;;6.65;1.38;;;;;;;13.97;47.21;99888.06;4985045;28;20197;-70
2022/09/17 14:56:21;;;;;;;9.27;1.20;;;;;;;13.77;44.67;99902.31;4986021;28;20050;-71